This is the latest recevied weather packets stored in our database for station/object N3PB. If no packets are shown the sender has not sent any weather packets the latest 10 day(s).
| Time | Temp. | Humidity | Pressure | Rain* | Wind** | Luminosity | Snow |
|---|---|---|---|---|---|---|---|
| 1778369199 | 19.44° C | 54% | 1011.5 hPa | 0 mm | - | - | - |
| 1778368899 | 19.44° C | 53% | 1011.5 hPa | 0 mm | - | - | - |
| 1778367699 | 20.56° C | 50% | 1011.3 hPa | 0 mm | - | - | - |
| 1778365899 | 21.67° C | 49% | 1011.2 hPa | 0 mm | - | - | - |
| 1778365599 | 21.67° C | 49% | 1011.2 hPa | 0 mm | - | - | - |
| 1778363199 | 22.22° C | 49% | 1010.8 hPa | 0 mm | - | - | - |
| 1778361699 | 22.22° C | 46% | 1010.3 hPa | 0 mm | - | - | - |
| 1778361399 | 22.22° C | 46% | 1010.4 hPa | 0 mm | - | - | - |
| 1778361099 | 21.67° C | 48% | 1010.3 hPa | 0 mm | - | - | - |
| 1778360799 | 21.67° C | 50% | 1010.1 hPa | 0 mm | - | - | - |
| 1778359905 | 22.22° C | 52% | 1010.1 hPa | 0 mm | - | - | - |
| 1778359599 | 22.22° C | 47% | 1010 hPa | 0 mm | - | - | - |
| 1778355705 | 22.22° C | 46% | 1009.5 hPa | 0 mm | - | - | - |
| 1778354798 | 22.78° C | 45% | 1009.2 hPa | 0 mm | - | - | - |
| 1778353902 | 22.22° C | 47% | 1009.4 hPa | 0 mm | - | - | - |
| 1778353005 | 22.22° C | 46% | 1009.3 hPa | 0 mm | - | - | - |
| 1778350001 | 21.67° C | 51% | 1009.4 hPa | 0 mm | - | - | - |
| 1778349104 | 21.67° C | 51% | 1009.4 hPa | 0 mm | - | - | - |
| 1778346098 | 19.44° C | 60% | 1009.6 hPa | 0 mm | - | - | - |
| 1778345501 | 18.89° C | 61% | 1009.8 hPa | 0 mm | - | - | - |
| 1778344298 | 19.44° C | 59% | 1010.1 hPa | 0 mm | - | - | - |
| 1778343699 | 20° C | 61% | 1010.2 hPa | 0 mm | - | - | - |
| 1778342798 | 20.56° C | 58% | 1010 hPa | 0 mm | - | - | - |
| 1778341901 | 20° C | 62% | 1009.9 hPa | 0 mm | - | - | - |
| 1778341298 | 19.44° C | 62% | 1009.8 hPa | 0 mm | - | - | - |
* Rain latest hour (hover to see other rain measurements)
** Current wind speed in m/s (hover to see current wind gust speed)